createdAt,value
2022-12-19T00:00:38.358Z,27.34
2022-12-19T00:03:05.955Z,27.37
2022-12-19T00:05:33.161Z,27.49
2022-12-19T00:08:00.580Z,27.44
2022-12-19T00:10:36.285Z,27.49
2022-12-19T00:13:03.334Z,27.33
2022-12-19T00:15:30.389Z,27.66
2022-12-19T00:17:57.472Z,27.47
2022-12-19T00:20:24.547Z,27.50
2022-12-19T00:22:51.605Z,27.40
2022-12-19T00:25:18.700Z,27.47
2022-12-19T00:27:46.256Z,27.61
2022-12-19T00:30:13.372Z,27.58
2022-12-19T00:32:41.418Z,27.43
2022-12-19T00:35:08.524Z,27.45
2022-12-19T00:37:35.598Z,27.53
2022-12-19T00:40:05.465Z,27.60
2022-12-19T00:42:32.537Z,27.35
2022-12-19T00:44:59.585Z,27.43
2022-12-19T00:47:26.640Z,27.68
2022-12-19T00:49:53.706Z,27.43
2022-12-19T00:52:20.753Z,27.73
2022-12-19T00:54:49.570Z,27.54
2022-12-19T00:57:16.703Z,27.46
2022-12-19T00:59:43.757Z,27.63
2022-12-19T01:02:10.974Z,27.62
2022-12-19T01:04:41.588Z,27.55
2022-12-19T01:07:09.096Z,27.54
2022-12-19T01:09:36.155Z,27.58
2022-12-19T01:12:24.670Z,27.56
2022-12-19T01:14:52.101Z,27.67
2022-12-19T01:17:19.249Z,27.73
2022-12-19T01:19:46.358Z,27.58
2022-12-19T01:22:13.475Z,27.75
2022-12-19T01:24:41.330Z,27.60
2022-12-19T01:27:08.494Z,27.67
2022-12-19T01:29:38.683Z,27.58
2022-12-19T01:32:19.700Z,27.75
2022-12-19T01:34:46.807Z,27.60
2022-12-19T01:37:13.884Z,27.60
2022-12-19T01:39:40.983Z,27.54
2022-12-19T01:42:09.899Z,27.61
2022-12-19T01:44:36.963Z,27.75
2022-12-19T01:47:04.047Z,27.58
2022-12-19T01:49:31.151Z,27.59
2022-12-19T01:51:58.626Z,27.44
2022-12-19T01:54:25.907Z,27.71
2022-12-19T01:56:52.944Z,27.60
2022-12-19T01:59:20.021Z,27.64
2022-12-19T02:01:51.437Z,27.63
2022-12-19T02:04:19.087Z,27.64
2022-12-19T02:06:46.220Z,27.60
2022-12-19T02:09:13.351Z,27.55
2022-12-19T02:11:40.489Z,27.59
2022-12-19T02:14:07.569Z,27.73
2022-12-19T02:16:34.681Z,27.88
2022-12-19T02:19:01.781Z,27.67
2022-12-19T02:21:28.886Z,27.63
2022-12-19T02:23:55.950Z,27.70
2022-12-19T02:26:23.040Z,27.68
2022-12-19T02:28:50.134Z,27.68
2022-12-19T02:31:17.863Z,27.79
2022-12-19T02:33:45.055Z,27.74
2022-12-19T02:36:12.204Z,27.58
2022-12-19T02:38:39.574Z,27.55
2022-12-19T02:41:06.799Z,27.66
2022-12-19T02:43:33.884Z,27.49
2022-12-19T02:46:01.024Z,27.53
2022-12-19T02:48:28.212Z,27.81
2022-12-19T02:50:55.313Z,27.63
2022-12-19T02:53:23.977Z,27.57
2022-12-19T02:55:51.503Z,27.68
2022-12-19T02:58:18.602Z,27.83
2022-12-19T03:00:45.669Z,27.66
2022-12-19T03:03:12.805Z,27.63
2022-12-19T03:05:39.933Z,27.66
2022-12-19T03:08:07.019Z,27.71
2022-12-19T03:10:35.189Z,27.65
2022-12-19T03:13:03.366Z,27.68
2022-12-19T03:15:30.456Z,27.78
2022-12-19T03:17:57.573Z,27.82
2022-12-19T03:20:25.287Z,27.76
2022-12-19T03:22:52.547Z,27.65
2022-12-19T03:25:19.648Z,27.61
2022-12-19T03:27:46.772Z,27.84
2022-12-19T03:30:13.838Z,27.74
2022-12-19T03:32:41.132Z,27.85
2022-12-19T03:35:08.213Z,27.79
2022-12-19T03:37:36.606Z,27.75
2022-12-19T03:40:03.692Z,27.60
2022-12-19T03:42:49.707Z,27.75
2022-12-19T03:45:16.772Z,27.87
2022-12-19T03:47:43.852Z,27.85
2022-12-19T03:50:11.118Z,27.71
2022-12-19T03:52:38.174Z,27.62
2022-12-19T03:55:05.289Z,27.87
2022-12-19T03:57:32.395Z,27.67
2022-12-19T03:59:59.498Z,27.69
2022-12-19T04:02:26.661Z,27.71
2022-12-19T04:04:53.793Z,27.74
2022-12-19T04:07:20.858Z,27.76
2022-12-19T04:09:47.947Z,27.84
2022-12-19T04:12:15.036Z,27.74
2022-12-19T04:14:42.095Z,27.81
2022-12-19T04:17:09.193Z,27.76
2022-12-19T04:19:41.108Z,27.82
2022-12-19T04:22:09.571Z,27.72
2022-12-19T04:24:36.639Z,27.76
2022-12-19T04:27:03.748Z,27.91
2022-12-19T04:29:30.822Z,27.78
2022-12-19T04:31:57.908Z,27.84
2022-12-19T04:34:24.981Z,27.73
2022-12-19T04:36:52.208Z,27.90
2022-12-19T04:39:19.296Z,27.90
2022-12-19T04:41:46.621Z,27.78
2022-12-19T04:44:13.710Z,27.88
2022-12-19T04:46:41.021Z,27.95
2022-12-19T04:49:08.177Z,27.73
2022-12-19T04:51:35.248Z,28.01
2022-12-19T04:54:02.318Z,27.93
2022-12-19T04:56:29.458Z,27.84
2022-12-19T04:58:56.535Z,27.89
2022-12-19T05:01:23.794Z,28.03
2022-12-19T05:03:55.784Z,27.80
2022-12-19T05:06:24.708Z,28.21
2022-12-19T05:08:51.827Z,27.92
2022-12-19T05:11:19.967Z,28.13
2022-12-19T05:13:47.250Z,27.91
2022-12-19T05:16:15.839Z,27.97
2022-12-19T05:18:43.133Z,28.04
2022-12-19T05:21:11.044Z,28.03
2022-12-19T05:23:38.163Z,27.83
2022-12-19T05:26:05.298Z,27.92
2022-12-19T05:28:32.380Z,28.01
2022-12-19T05:30:59.474Z,27.95
2022-12-19T05:33:26.591Z,27.90
2022-12-19T05:35:53.677Z,27.88
2022-12-19T05:38:20.761Z,28.25
2022-12-19T05:40:47.856Z,27.98
2022-12-19T05:43:14.929Z,27.89
2022-12-19T05:45:42.210Z,27.76
2022-12-19T05:48:09.502Z,27.94
2022-12-19T05:50:36.716Z,27.99
2022-12-19T05:53:03.844Z,27.97
2022-12-19T05:55:30.944Z,28.11
2022-12-19T05:57:58.027Z,28.09
2022-12-19T06:00:25.688Z,28.08
2022-12-19T06:02:52.852Z,27.97
2022-12-19T06:05:20.113Z,28.18
2022-12-19T06:07:47.195Z,27.95
2022-12-19T06:10:14.268Z,28.12
2022-12-19T06:12:41.328Z,28.15
2022-12-19T06:15:08.686Z,28.18
2022-12-19T06:17:35.757Z,28.09
2022-12-19T06:20:02.827Z,28.17
2022-12-19T06:22:29.957Z,28.15
2022-12-19T06:24:57.254Z,28.15
2022-12-19T06:27:24.387Z,28.18
2022-12-19T06:29:51.468Z,28.10
2022-12-19T06:32:18.595Z,28.35
2022-12-19T06:35:03.994Z,28.18
2022-12-19T06:37:31.374Z,28.31
2022-12-19T06:39:58.435Z,28.13
2022-12-19T06:42:25.668Z,28.21
2022-12-19T06:44:52.796Z,28.06
2022-12-19T06:47:19.960Z,28.29
2022-12-19T06:49:47.122Z,28.27
2022-12-19T06:52:14.207Z,28.16
2022-12-19T06:54:41.438Z,28.16
2022-12-19T06:57:08.886Z,28.35
2022-12-19T06:59:35.957Z,28.23
2022-12-19T07:02:03.171Z,28.21
2022-12-19T07:04:30.517Z,28.30
2022-12-19T07:06:57.653Z,28.25
2022-12-19T07:09:24.735Z,28.49
2022-12-19T07:11:51.822Z,28.34
2022-12-19T07:14:19.134Z,28.23
2022-12-19T07:16:46.211Z,28.33
2022-12-19T07:19:14.142Z,28.36
2022-12-19T07:21:41.299Z,28.26
2022-12-19T07:24:08.950Z,28.26
2022-12-19T07:26:36.251Z,28.27
2022-12-19T07:29:03.531Z,28.38
2022-12-19T07:31:30.659Z,28.25
2022-12-19T07:33:58.109Z,28.24
2022-12-19T07:36:25.527Z,28.23
2022-12-19T07:38:52.617Z,28.43
2022-12-19T07:41:19.788Z,28.19
2022-12-19T07:43:47.320Z,28.50
2022-12-19T07:46:14.576Z,28.22
2022-12-19T07:48:41.697Z,28.36
2022-12-19T07:51:08.760Z,28.40
2022-12-19T07:53:35.848Z,28.32
2022-12-19T07:56:02.908Z,28.41
2022-12-19T07:58:29.978Z,28.55
2022-12-19T08:00:57.180Z,28.40
2022-12-19T08:03:24.431Z,28.30
2022-12-19T08:05:51.652Z,28.54
2022-12-19T08:08:18.803Z,28.31
2022-12-19T08:10:45.879Z,28.52
2022-12-19T08:13:12.951Z,28.63
2022-12-19T08:15:40.061Z,28.72
2022-12-19T08:18:07.129Z,28.42
2022-12-19T08:20:34.374Z,28.50
2022-12-19T08:23:01.472Z,28.75
2022-12-19T08:25:28.563Z,28.60
2022-12-19T08:27:55.634Z,28.62
2022-12-19T08:30:22.713Z,28.65
2022-12-19T08:32:49.852Z,28.71
2022-12-19T08:35:16.957Z,28.98
2022-12-19T08:37:44.578Z,28.61
2022-12-19T08:40:11.641Z,28.71
2022-12-19T08:42:38.784Z,28.76
2022-12-19T08:45:05.913Z,28.65
2022-12-19T08:47:33.100Z,28.68
2022-12-19T08:50:00.322Z,28.71
2022-12-19T08:52:27.431Z,28.88
2022-12-19T08:54:54.500Z,28.63
2022-12-19T08:57:21.600Z,28.55
2022-12-19T08:59:48.693Z,28.76
2022-12-19T09:02:16.837Z,28.89
2022-12-19T09:05:58.291Z,28.62
2022-12-19T09:07:31.095Z,28.73
2022-12-19T09:10:00.675Z,28.51
2022-12-19T09:12:27.743Z,28.70
2022-12-19T09:14:54.908Z,28.57
2022-12-19T09:17:22.094Z,28.56
2022-12-19T09:19:49.590Z,28.63
2022-12-19T09:22:16.885Z,28.63
2022-12-19T09:24:44.286Z,28.80
2022-12-19T09:27:11.414Z,28.73
2022-12-19T09:29:38.900Z,28.67
2022-12-19T09:32:06.005Z,28.74
2022-12-19T09:34:37.320Z,28.81
2022-12-19T09:37:06.394Z,28.71
2022-12-19T09:39:34.417Z,28.70
2022-12-19T09:42:01.535Z,28.80
2022-12-19T09:44:28.631Z,28.77
2022-12-19T09:46:55.787Z,28.79
2022-12-19T09:49:23.051Z,28.75
2022-12-19T09:51:50.182Z,28.56
2022-12-19T09:54:17.566Z,28.74
2022-12-19T09:56:46.349Z,28.74
2022-12-19T09:59:14.278Z,28.55
2022-12-19T10:01:41.446Z,28.75
2022-12-19T10:04:08.594Z,28.61
2022-12-19T10:07:10.575Z,28.55
2022-12-19T10:11:36.752Z,28.61
2022-12-19T10:12:47.730Z,28.53
2022-12-19T10:14:57.008Z,28.66
2022-12-19T10:17:25.298Z,28.56
2022-12-19T10:19:52.650Z,28.48
2022-12-19T10:22:19.860Z,28.52
2022-12-19T10:25:02.053Z,28.63
2022-12-19T10:27:34.109Z,28.42
2022-12-19T10:30:01.496Z,28.53
2022-12-19T10:32:28.716Z,28.60
2022-12-19T10:34:55.815Z,28.56
2022-12-19T10:37:29.027Z,28.65
2022-12-19T10:39:58.498Z,28.67
2022-12-19T10:42:25.579Z,28.68
2022-12-19T10:44:52.668Z,28.64
2022-12-19T10:47:19.805Z,28.52
2022-12-19T10:49:46.872Z,28.69
2022-12-19T10:52:14.003Z,28.67
2022-12-19T10:54:42.026Z,28.75
2022-12-19T10:57:09.139Z,28.63
2022-12-19T10:59:36.247Z,28.67
2022-12-19T11:02:07.225Z,28.76
2022-12-19T11:04:37.279Z,28.73
2022-12-19T11:07:08.746Z,28.69
2022-12-19T11:09:35.968Z,28.59
2022-12-19T11:14:46.510Z,28.73
2022-12-19T11:20:28.092Z,28.72
2022-12-19T11:22:05.562Z,28.84
2022-12-19T11:29:26.636Z,29.00
2022-12-19T11:30:36.760Z,28.51
2022-12-19T11:30:43.544Z,28.60
2022-12-19T11:30:49.025Z,28.79
2022-12-19T11:34:21.312Z,28.80
2022-12-19T11:36:48.526Z,28.57
2022-12-19T11:39:16.851Z,28.74
2022-12-19T11:41:44.513Z,28.85
2022-12-19T11:44:11.612Z,28.89
2022-12-19T11:46:38.879Z,28.84
2022-12-19T11:49:06.018Z,28.79
2022-12-19T11:51:33.097Z,28.73
2022-12-19T11:54:00.183Z,28.66
2022-12-19T11:56:28.019Z,28.68
2022-12-19T11:58:55.209Z,28.76
2022-12-19T12:01:22.310Z,28.92
2022-12-19T12:03:53.980Z,28.61
2022-12-19T12:06:31.579Z,28.95
2022-12-19T12:12:28.427Z,28.90
2022-12-19T12:15:48.522Z,28.85
2022-12-19T12:23:08.166Z,28.60
2022-12-19T12:27:21.631Z,28.61
2022-12-19T12:31:08.063Z,28.64
2022-12-19T12:31:16.640Z,28.71
2022-12-19T12:31:26.379Z,28.65
2022-12-19T12:35:05.928Z,28.91
2022-12-19T12:35:40.929Z,28.95
2022-12-19T12:35:56.945Z,28.79
2022-12-19T12:39:41.365Z,28.75
2022-12-19T12:42:08.447Z,28.73
2022-12-19T12:44:41.116Z,28.69
2022-12-19T12:47:12.067Z,28.71
2022-12-19T12:49:39.177Z,28.78
2022-12-19T12:52:06.260Z,28.73
2022-12-19T12:54:33.453Z,28.61
2022-12-19T12:57:00.528Z,28.65
2022-12-19T12:59:28.862Z,28.70
2022-12-19T13:01:56.243Z,28.73
2022-12-19T13:04:23.470Z,28.57
2022-12-19T13:06:50.573Z,28.78
2022-12-19T13:09:17.640Z,28.96
2022-12-19T13:12:03.345Z,29.62
2022-12-19T13:14:30.435Z,30.19
2022-12-19T13:16:57.562Z,29.66
2022-12-19T13:19:29.051Z,29.94
2022-12-19T13:21:56.515Z,29.26
2022-12-19T13:24:23.621Z,29.38
2022-12-19T13:26:51.198Z,29.65
2022-12-19T13:29:18.362Z,29.48
2022-12-19T13:31:46.323Z,29.41
2022-12-19T13:34:13.421Z,29.41
2022-12-19T13:39:44.310Z,29.56
2022-12-19T13:39:55.429Z,29.46
2022-12-19T13:42:33.595Z,29.35
2022-12-19T13:45:00.674Z,29.56
2022-12-19T13:47:27.744Z,29.56
2022-12-19T13:49:54.921Z,29.40
2022-12-19T13:52:22.941Z,29.45
2022-12-19T13:54:50.022Z,29.18
2022-12-19T13:57:17.092Z,29.29
2022-12-19T13:59:59.209Z,29.20
2022-12-19T14:02:28.064Z,29.32
2022-12-19T14:04:55.351Z,29.19
2022-12-19T14:07:27.427Z,29.00
2022-12-19T14:11:40.581Z,29.25
2022-12-19T14:13:50.790Z,29.21
2022-12-19T14:15:57.030Z,29.35
2022-12-19T14:18:42.426Z,29.07
2022-12-19T14:22:09.607Z,29.16
2022-12-19T14:23:58.515Z,29.29
2022-12-19T14:28:25.008Z,29.20
2022-12-19T14:29:13.505Z,29.41
2022-12-19T14:31:58.427Z,29.14
2022-12-19T14:35:23.699Z,29.05
2022-12-19T14:37:14.759Z,29.15
2022-12-19T14:40:01.874Z,29.17
2022-12-19T14:43:57.176Z,29.08
2022-12-19T14:53:17.580Z,29.36
2022-12-19T14:54:10.513Z,29.28
2022-12-19T14:54:28.279Z,29.13
2022-12-19T14:54:31.209Z,29.07
2022-12-19T14:57:00.691Z,29.33
2022-12-19T14:59:28.388Z,29.34
2022-12-19T15:01:55.620Z,29.31
2022-12-19T15:04:48.616Z,29.13
2022-12-19T15:07:12.233Z,29.39
2022-12-19T15:10:59.797Z,29.12
2022-12-19T15:14:55.121Z,29.33
2022-12-19T15:15:32.420Z,29.32
2022-12-19T15:17:59.540Z,29.09
2022-12-19T15:20:28.312Z,29.04
2022-12-19T15:22:55.398Z,29.24
2022-12-19T15:26:01.362Z,29.30
2022-12-19T15:28:09.532Z,29.03
2022-12-19T15:30:36.687Z,29.26
2022-12-19T15:33:03.763Z,29.03
2022-12-19T15:35:30.884Z,29.29
2022-12-19T15:37:58.037Z,29.19
2022-12-19T15:40:25.279Z,29.49
2022-12-19T15:42:52.541Z,29.61
2022-12-19T15:45:19.938Z,29.61
2022-12-19T15:47:47.010Z,29.63
2022-12-19T15:50:14.093Z,29.78
2022-12-19T15:52:41.272Z,29.69
2022-12-19T15:55:08.952Z,29.92
2022-12-19T15:57:36.170Z,30.17
2022-12-19T16:00:03.271Z,30.06
2022-12-19T16:03:04.497Z,30.05
2022-12-19T16:05:17.731Z,30.17
2022-12-19T16:07:44.862Z,30.14
2022-12-19T16:10:12.494Z,30.14
2022-12-19T16:12:40.438Z,30.26
2022-12-19T16:15:07.548Z,30.27
2022-12-19T16:17:34.642Z,30.23
2022-12-19T16:20:01.712Z,30.30
2022-12-19T16:22:28.798Z,30.35
2022-12-19T16:24:55.876Z,30.33
2022-12-19T16:27:23.044Z,30.13
2022-12-19T16:29:50.219Z,30.24
2022-12-19T16:32:17.435Z,30.30
2022-12-19T16:34:44.560Z,30.34
2022-12-19T16:37:11.915Z,30.35
2022-12-19T16:39:39.068Z,30.29
2022-12-19T16:42:06.141Z,30.71
2022-12-19T16:44:33.292Z,30.59
2022-12-19T16:47:00.445Z,30.70
2022-12-19T16:49:27.909Z,30.85
2022-12-19T16:51:55.008Z,30.64
2022-12-19T16:54:22.098Z,30.77
2022-12-19T16:56:49.253Z,30.59
2022-12-19T16:59:16.398Z,30.67
2022-12-19T17:01:44.065Z,30.57
2022-12-19T17:04:11.317Z,31.11
2022-12-19T17:06:38.384Z,30.94
2022-12-19T17:09:05.687Z,30.94
2022-12-19T17:11:32.757Z,31.06
2022-12-19T17:14:00.589Z,31.01
2022-12-19T17:16:27.701Z,31.13
2022-12-19T17:18:54.821Z,31.27
2022-12-19T17:21:21.903Z,31.32
2022-12-19T17:23:49.028Z,31.44
2022-12-19T17:26:18.107Z,31.20
2022-12-19T17:28:48.130Z,31.33
2022-12-19T17:31:15.511Z,31.06
2022-12-19T17:33:42.783Z,31.26
2022-12-19T17:36:09.855Z,31.52
2022-12-19T17:38:36.944Z,31.33
2022-12-19T17:41:04.081Z,31.36
2022-12-19T17:43:31.190Z,31.59
2022-12-19T17:45:58.406Z,31.44
2022-12-19T17:48:25.573Z,31.26
2022-12-19T17:50:52.722Z,31.59
2022-12-19T17:53:19.827Z,31.39
2022-12-19T17:55:46.993Z,31.33
2022-12-19T17:58:14.205Z,31.45
2022-12-19T18:00:41.323Z,31.46
2022-12-19T18:03:08.552Z,31.27
2022-12-19T18:05:38.878Z,31.46
2022-12-19T18:08:06.053Z,31.40
2022-12-19T18:10:33.493Z,31.47
2022-12-19T18:13:00.727Z,31.45
2022-12-19T18:15:27.823Z,31.31
2022-12-19T18:17:55.680Z,31.11
2022-12-19T18:20:29.367Z,31.23
2022-12-19T18:22:58.491Z,31.14
2022-12-19T18:25:25.631Z,31.50
2022-12-19T18:27:52.840Z,31.32
2022-12-19T18:30:20.005Z,31.26
2022-12-19T18:32:47.139Z,31.48
2022-12-19T18:35:14.240Z,31.31
2022-12-19T18:37:42.665Z,31.51
2022-12-19T18:40:13.038Z,31.30
2022-12-19T18:42:44.782Z,31.40
2022-12-19T18:45:11.886Z,31.26
2022-12-19T18:47:38.964Z,31.47
2022-12-19T18:50:06.051Z,31.35
2022-12-19T18:52:33.414Z,31.23
2022-12-19T18:55:00.573Z,31.14
2022-12-19T18:57:27.663Z,31.08
2022-12-19T18:59:54.751Z,31.36
2022-12-19T19:02:21.959Z,31.17
2022-12-19T19:04:49.168Z,31.27
2022-12-19T19:07:16.417Z,31.05
2022-12-19T19:09:43.923Z,31.19
2022-12-19T19:12:11.007Z,31.29
2022-12-19T19:14:39.325Z,31.24
2022-12-19T19:17:06.461Z,31.33
2022-12-19T19:19:33.600Z,30.98
2022-12-19T19:22:00.737Z,31.24
2022-12-19T19:24:27.863Z,31.17
2022-12-19T19:26:55.693Z,31.22
2022-12-19T19:29:22.837Z,31.17
2022-12-19T19:31:49.955Z,31.12
2022-12-19T19:34:17.063Z,30.78
2022-12-19T19:36:44.745Z,30.87
2022-12-19T19:39:13.084Z,31.13
2022-12-19T19:41:40.156Z,31.43
2022-12-19T19:44:07.393Z,31.48
2022-12-19T19:46:34.610Z,31.28
2022-12-19T19:49:01.798Z,31.08
2022-12-19T19:51:29.210Z,30.90
2022-12-19T19:53:56.393Z,30.99
2022-12-19T19:56:23.497Z,31.09
2022-12-19T19:58:50.631Z,30.89
2022-12-19T20:01:17.772Z,31.03
2022-12-19T20:03:45.386Z,30.98
2022-12-19T20:06:12.659Z,30.81
2022-12-19T20:08:40.821Z,30.79
2022-12-19T20:11:08.338Z,30.97
2022-12-19T20:13:35.464Z,30.94
2022-12-19T20:16:02.733Z,30.91
2022-12-19T20:18:30.498Z,31.13
2022-12-19T20:20:57.644Z,31.13
2022-12-19T20:23:24.747Z,31.13
2022-12-19T20:25:51.883Z,31.06
2022-12-19T20:28:19.175Z,31.33
2022-12-19T20:30:47.253Z,31.09
2022-12-19T20:33:14.478Z,31.03
2022-12-19T20:35:42.593Z,31.19
2022-12-19T20:38:09.893Z,31.50
2022-12-19T20:40:37.356Z,31.33
2022-12-19T20:43:04.900Z,32.04
2022-12-19T20:45:32.328Z,31.47
2022-12-19T20:47:59.450Z,31.71
2022-12-19T20:50:26.572Z,31.44
2022-12-19T20:52:53.657Z,31.37
2022-12-19T20:55:20.773Z,31.46
2022-12-19T20:57:47.944Z,31.37
2022-12-19T21:00:15.139Z,31.58
2022-12-19T21:03:24.998Z,31.32
2022-12-19T21:05:29.984Z,31.03
2022-12-19T21:07:57.120Z,30.95
2022-12-19T21:10:24.237Z,30.93
2022-12-19T21:12:51.348Z,31.16
2022-12-19T21:15:18.438Z,30.91
2022-12-19T21:17:45.697Z,31.04
2022-12-19T21:20:12.807Z,30.94
2022-12-19T21:22:39.921Z,31.06
2022-12-19T21:25:07.091Z,30.92
2022-12-19T21:27:34.265Z,31.07
2022-12-19T21:30:01.375Z,31.08
2022-12-19T21:32:28.648Z,31.08
2022-12-19T21:34:55.833Z,30.92
2022-12-19T21:37:24.354Z,31.06
2022-12-19T21:39:51.517Z,31.00
2022-12-19T21:42:18.746Z,31.07
2022-12-19T21:44:45.921Z,31.10
2022-12-19T21:47:13.195Z,31.08
2022-12-19T21:49:40.424Z,31.05
2022-12-19T21:52:07.558Z,31.02
2022-12-19T21:54:34.685Z,30.96
2022-12-19T21:57:01.794Z,31.04
2022-12-19T21:59:28.946Z,30.96
2022-12-19T22:01:56.203Z,31.12
2022-12-19T22:04:23.841Z,31.03
2022-12-19T22:06:51.117Z,31.03
2022-12-19T22:09:18.243Z,31.01
2022-12-19T22:11:45.359Z,31.03
2022-12-19T22:14:12.501Z,31.04
2022-12-19T22:16:39.722Z,31.18
2022-12-19T22:19:07.398Z,31.03
2022-12-19T22:21:34.575Z,31.08
2022-12-19T22:24:01.705Z,31.06
2022-12-19T22:26:28.996Z,31.30
2022-12-19T22:28:56.121Z,31.14
2022-12-19T22:31:23.341Z,30.97
2022-12-19T22:33:50.531Z,31.12
2022-12-19T22:36:23.949Z,31.17
2022-12-19T22:38:54.620Z,31.15
2022-12-19T22:41:21.713Z,31.25
2022-12-19T22:43:48.796Z,31.08
2022-12-19T22:46:15.908Z,30.91
2022-12-19T22:48:43.039Z,31.09
2022-12-19T22:51:10.177Z,31.05
2022-12-19T22:53:37.300Z,31.21
2022-12-19T22:56:06.387Z,31.09
2022-12-19T22:58:33.797Z,31.18
2022-12-19T23:01:00.885Z,31.24
2022-12-19T23:03:28.061Z,31.13
2022-12-19T23:05:55.337Z,31.31
2022-12-19T23:08:22.492Z,31.13
2022-12-19T23:10:49.810Z,31.33
2022-12-19T23:13:16.907Z,31.08
2022-12-19T23:15:44.015Z,31.06
2022-12-19T23:18:11.187Z,31.00
2022-12-19T23:20:38.322Z,31.14
2022-12-19T23:23:05.631Z,31.15
2022-12-19T23:25:32.722Z,31.21
2022-12-19T23:28:00.089Z,31.25
2022-12-19T23:30:27.643Z,31.26
2022-12-19T23:32:54.746Z,31.24
2022-12-19T23:35:21.839Z,31.20
2022-12-19T23:37:48.932Z,31.28
2022-12-19T23:40:16.025Z,31.19
2022-12-19T23:42:43.131Z,31.23
2022-12-19T23:45:10.521Z,31.22
2022-12-19T23:47:37.669Z,31.16
2022-12-19T23:50:04.831Z,31.25
2022-12-19T23:52:31.972Z,31.27
2022-12-19T23:54:59.314Z,31.28
2022-12-19T23:57:26.408Z,31.15
2022-12-19T23:59:53.509Z,31.09
